Date,TemperatureHighF,TemperatureAvgF,TemperatureLowF,DewpointHighF,DewpointAvgF,DewpointLowF,HumidityHigh,HumidityAvg,HumidityLow,PressureMaxIn,PressureMinIn,WindSpeedMaxMPH,WindSpeedAvgMPH,GustSpeedMaxMPH,PrecipitationSumIn
2013-1-1,32,30,26,22,20,18,79,67,59,29.67,29.09,4,0,7,0.00
2013-1-2,27,20,16,21,17,14,92,87,74,29.50,29.10,2,0,2,0.00
2013-1-3,28,23,17,19,16,13,90,77,64,29.60,29.50,2,1,2,0.00
2013-1-4,25,15,10,16,10,6,87,81,63,29.79,29.57,2,0,2,0.00
2013-1-5,15,12,9,11,8,6,90,85,80,29.78,29.35,2,0,2,0.00
2013-1-6,18,12,6,13,8,4,92,86,79,29.36,29.19,2,0,2,0.00
2013-1-7,12,7,-2,10,4,-4,92,89,86,29.47,29.12,2,0,2,0.00
2013-1-8,0,-3,-7,-3,-6,-10,88,86,84,30.09,29.47,0,0,1,0.00
2013-1-9,-1,-4,-8,-4,-8,-12,88,86,84,30.16,29.90,1,0,2,0.00
2013-1-10,11,8,-1,9,5,-4,91,90,87,30.07,29.87,1,0,1,0.00
2013-1-11,14,12,7,12,10,5,93,91,89,30.16,29.83,1,0,1,0.00
2013-1-12,29,19,12,26,18,10,96,93,88,30.15,29.68,0,0,0,0.00
2013-1-13,34,31,29,32,30,26,97,95,88,29.69,29.46,0,0,0,0.00
2013-1-14,35,33,26,34,31,22,98,95,83,29.77,29.17,5,0,7,0.29
2013-1-15,26,13,9,22,10,6,92,87,80,30.17,29.76,5,0,8,0.00
2013-1-16,12,8,3,10,5,0,92,90,87,30.18,29.80,1,0,1,0.00
2013-1-17,13,3,-11,10,-1,-15,92,82,72,30.15,29.76,3,0,6,0.00
2013-1-18,-7,-12,-16,-12,-16,-20,85,81,74,30.43,30.15,1,0,2,0.00
2013-1-19,5,0,-7,-3,-6,-13,78,74,67,30.43,30.08,1,0,3,0.00
2013-1-20,10,7,2,8,3,-5,90,85,70,30.09,30.00,1,0,1,0.00
2013-1-21,9,6,-2,6,3,-6,90,86,78,30.11,29.99,0,0,0,0.00
2013-1-22,6,2,-3,3,-2,-6,88,86,82,29.99,29.71,0,0,0,0.00
2013-1-23,8,6,2,4,-1,-7,87,75,65,29.72,29.58,0,0,0,0.00
2013-1-24,2,-4,-12,-6,-14,-19,72,63,60,29.83,29.64,4,0,8,0.00
2013-1-25,-12,-21,-30,-19,-26,-34,80,77,71,30.03,29.83,1,0,1,0.00
2013-1-26,-24,-29,-32,-29,-34,-37,79,77,75,30.18,30.03,0,0,0,0.00
2013-1-27,-32,-36,-39,-37,-42,-44,76,74,73,30.64,30.18,0,0,0,0.00
2013-1-28,-14,-29,-39,-18,-34,-44,83,77,73,30.67,30.11,0,0,0,0.00
2013-1-29,-6,-9,-14,-11,-15,-19,81,76,67,30.11,29.90,0,0,0,0.00
2013-1-30,9,1,-7,5,-4,-11,85,80,75,29.94,29.68,0,0,0,0.00
2013-1-31,10,8,5,6,4,1,89,86,78,30.08,29.70,0,0,0,0.00
2013-2-1,7,2,-5,4,-1,-9,90,88,84,30.14,29.86,0,0,0,0.00
2013-2-2,18,10,5,12,6,2,90,84,74,29.87,29.49,0,0,0,0.00
2013-2-3,12,8,5,8,6,2,92,89,86,29.49,29.30,0,0,0,0.00
2013-2-4,15,10,6,13,8,3,92,90,88,29.62,29.45,0,0,0,0.00
2013-2-5,7,3,-3,5,0,-6,91,88,86,29.63,29.58,0,0,0,0.00
2013-2-6,5,1,-3,2,-2,-6,89,88,86,29.70,29.57,0,0,0,0.00
2013-2-7,10,2,-5,8,-1,-8,91,88,85,29.68,29.29,0,0,0,0.00
2013-2-8,8,3,0,5,0,-2,90,88,84,29.80,29.31,0,0,0,0.00
2013-2-9,29,18,2,24,15,0,95,88,79,29.79,29.00,0,0,0,0.00
2013-2-10,32,22,9,28,19,7,93,88,79,29.44,28.91,0,0,0,0.00
2013-2-11,21,14,4,16,12,-100,93,89,81,29.68,29.44,0,-4,0,0.00
2013-2-12,15,6,-1,13,3,-4,92,89,85,29.77,29.68,0,0,0,0.00
2013-2-13,20,10,4,16,8,1,93,90,83,29.77,29.72,0,0,0,0.00
2013-2-14,25,20,11,17,14,9,92,76,59,29.73,29.30,0,0,0,0.00
2013-2-15,22,8,-6,17,4,-10,89,83,79,30.01,29.39,0,0,0,0.00
2013-2-16,2,-6,-13,-3,-10,-16,87,84,76,30.09,29.88,0,0,0,0.00
2013-2-17,-2,-6,-10,-5,-10,-15,87,82,78,30.16,29.82,0,0,0,0.00
2013-2-18,-10,-18,-24,-15,-22,-29,82,79,74,30.27,30.15,0,0,0,0.00
2013-2-19,-4,-16,-27,-10,-21,-32,82,77,72,30.15,29.60,0,0,0,0.00
2013-2-20,6,-5,-15,-2,-11,-20,83,75,60,29.60,29.38,0,0,0,0.00
2013-2-21,1,-2,-5,-5,-7,-9,86,78,68,29.43,29.32,0,0,0,0.00
2013-2-22,-4,-9,-18,-8,-13,-22,84,81,74,29.61,29.36,0,0,0,0.00
2013-2-23,4,-5,-14,-2,-10,-19,85,79,71,29.54,29.31,0,0,0,0.00
2013-2-24,8,-4,-10,0,-8,-14,87,81,69,29.68,29.33,0,0,0,0.00
2013-2-25,20,5,-8,11,0,-11,90,82,65,29.74,29.68,0,0,0,0.00
2013-2-26,27,13,4,10,6,0,90,74,44,29.74,29.43,0,0,0,0.00
2013-2-27,30,18,9,16,10,4,83,71,53,29.43,29.27,0,0,0,0.00
2013-2-28,32,18,9,18,11,5,86,73,43,29.43,29.32,0,0,0,0.00
2013-3-1,13,9,4,9,5,1,90,85,80,29.96,29.42,0,0,0,0.00
2013-3-2,20,6,-2,13,3,-5,91,85,73,30.12,29.96,0,0,0,0.00
2013-3-3,27,9,-1,17,5,-4,91,84,66,30.37,30.12,0,0,0,0.00
2013-3-4,32,14,2,19,9,0,92,80,53,30.42,30.23,0,0,0,0.00
2013-3-5,35,19,11,18,12,8,86,74,44,30.23,29.87,0,0,0,0.00
2013-3-6,22,12,6,10,6,2,85,76,59,29.88,29.81,3,0,4,0.00
2013-3-7,35,23,6,22,14,2,89,69,50,29.81,29.36,3,0,6,0.00
2013-3-8,42,32,24,26,22,17,80,68,48,29.56,29.41,2,0,4,0.00
2013-3-9,36,28,18,25,21,13,90,77,63,29.94,29.56,3,0,6,0.01
2013-3-10,28,19,10,24,14,7,92,81,64,30.25,29.94,4,0,5,0.00
2013-3-11,27,14,4,15,8,1,90,79,58,30.53,30.25,3,0,5,0.00
2013-3-12,24,9,-1,5,0,-4,88,68,38,30.54,30.31,3,0,4,0.00
2013-3-13,16,4,-5,0,-9,-18,78,58,36,30.31,30.20,9,2,17,0.00
2013-3-14,17,4,-7,-5,-12,-20,54,46,34,30.22,30.12,5,1,10,0.00
2013-3-15,22,8,-4,-3,-9,-14,61,45,26,30.14,29.89,8,1,9,0.00
2013-3-16,24,10,-2,3,-4,-11,73,53,36,30.15,29.96,5,1,7,0.00
2013-3-17,18,6,-4,1,-3,-9,81,66,44,30.26,30.11,2,0,4,0.00
2013-3-18,19,6,-4,1,-4,-9,82,65,43,30.11,29.96,4,0,5,0.00
2013-3-19,17,6,-3,-1,-6,-9,77,61,38,30.10,30.00,5,1,6,0.00
2013-3-20,11,0,-10,-1,-8,-15,83,70,51,30.01,29.88,3,0,7,0.00
2013-3-21,18,8,-1,10,3,-4,87,80,66,30.07,29.95,3,0,4,0.00
2013-3-22,30,19,10,16,7,2,81,59,43,29.98,29.62,9,1,12,0.00
2013-3-23,20,2,-10,15,-7,-15,82,65,39,30.03,29.65,7,1,8,0.00
2013-3-24,15,1,-12,4,-7,-16,86,73,44,30.01,29.72,3,0,4,0.00
2013-3-25,10,4,0,4,0,-4,87,81,64,29.72,29.57,6,0,8,0.00
2013-3-26,4,-2,-10,-4,-10,-100,82,74,65,30.17,29.72,7,-23,13,0.00
2013-3-27,8,-5,-19,0,-11,-24,83,74,62,30.24,30.10,4,0,5,0.00
2013-3-28,29,10,-8,19,3,-12,84,72,53,30.11,29.85,3,0,6,0.00
2013-3-29,43,26,12,22,15,7,83,65,34,29.86,29.79,2,0,6,0.12
2013-3-30,38,26,12,22,15,8,86,65,40,30.13,29.85,4,0,5,0.01
2013-3-31,39,30,20,27,22,15,89,72,55,30.17,30.07,3,0,5,0.01
2013-4-1,38,30,22,29,23,15,96,77,52,30.07,29.98,6,0,7,0.01
2013-4-2,35,24,13,18,14,10,86,65,46,30.13,30.01,3,1,6,0.00
2013-4-3,33,23,14,13,8,-1,75,55,33,30.41,30.13,6,1,8,0.00
2013-4-4,30,19,9,2,-1,-4,60,43,24,30.42,30.03,6,1,11,0.00
2013-4-5,19,11,1,1,-6,-10,59,45,32,30.03,29.69,9,1,13,0.00
2013-4-6,20,8,-3,-1,-7,-12,66,50,35,29.69,29.55,8,1,10,0.00
2013-4-7,10,6,-3,2,-2,-8,83,71,54,29.86,29.59,2,0,5,0.00
2013-4-8,16,4,-9,8,-1,-12,88,81,64,29.89,29.42,4,0,4,0.00
2013-4-9,13,9,6,6,4,0,88,82,71,29.42,29.09,4,0,7,0.00
2013-4-10,15,6,-2,2,-2,-9,82,67,47,29.91,29.39,3,0,7,0.00
2013-4-11,16,4,-10,0,-6,-14,82,64,39,30.21,29.91,6,0,10,0.00
2013-4-12,23,8,-7,5,-2,-11,85,64,42,30.31,30.21,5,1,10,0.00
2013-4-13,26,14,-2,5,1,-7,82,57,36,30.44,30.31,7,1,9,0.00
2013-4-14,26,18,8,19,9,0,86,70,53,30.52,30.44,4,0,5,0.00
2013-4-15,32,22,13,13,7,4,86,55,31,30.48,30.39,8,1,8,0.05
2013-4-16,30,23,17,17,9,5,83,55,39,30.39,30.20,4,1,8,0.00
2013-4-17,32,22,11,11,8,4,76,56,38,30.33,30.20,8,1,11,0.03
2013-4-18,34,23,11,10,6,2,69,48,30,30.38,30.32,6,1,11,0.01
2013-4-19,40,24,10,14,8,4,74,53,24,30.43,30.35,5,1,7,0.01
2013-4-20,43,31,16,19,11,7,73,48,23,30.35,30.21,10,1,10,0.00
2013-4-21,45,32,17,19,13,-100,78,50,20,30.30,30.24,4,1,7,0.00
2013-4-22,48,33,18,23,16,12,75,51,24,30.40,30.30,10,1,12,0.00
2013-4-23,49,36,22,21,17,13,78,50,25,30.33,30.11,10,1,14,0.00
2013-4-24,37,33,26,29,25,18,92,75,49,30.11,29.91,8,1,10,0.11
2013-4-25,33,26,16,19,4,-4,68,42,24,30.03,29.93,6,1,10,0.02
2013-4-26,33,23,12,22,12,4,91,64,43,29.94,29.55,5,1,7,0.00
2013-4-27,30,24,15,20,8,-5,91,54,27,30.09,29.61,11,1,11,0.00
2013-4-28,36,22,5,17,6,-3,73,50,29,30.12,30.04,4,1,10,0.00
2013-4-29,33,27,20,27,20,13,95,75,64,30.07,30.01,6,1,9,0.00
2013-4-30,36,30,26,29,26,23,95,86,67,30.01,29.79,4,0,7,0.20
2013-5-1,36,28,21,25,21,12,91,75,58,29.80,29.59,5,1,8,0.18
2013-5-2,38,28,19,24,18,12,81,66,50,29.85,29.65,5,1,7,0.02
2013-5-3,37,32,26,30,26,19,92,81,63,29.88,29.77,5,1,6,0.01
2013-5-4,34,27,18,24,20,15,93,78,55,29.93,29.83,4,0,5,0.03
2013-5-5,40,31,20,21,15,9,85,55,30,30.07,29.93,8,1,11,0.00
2013-5-6,40,34,21,22,14,12,75,45,32,30.13,30.04,3,1,5,0.00
2013-5-7,46,36,23,24,18,12,80,52,27,30.19,30.13,6,1,8,0.00
2013-5-8,50,38,24,26,20,15,81,53,26,30.26,30.16,8,1,10,0.00
2013-5-9,57,43,26,28,23,18,87,52,23,30.29,30.12,5,1,7,0.00
2013-5-10,57,47,35,29,26,20,79,48,24,30.14,29.86,8,1,10,0.00
2013-5-11,57,45,36,30,28,24,70,52,31,29.85,29.58,3,1,6,0.00
2013-5-12,52,44,36,33,29,25,77,57,37,29.58,29.38,9,1,13,0.00
2013-5-13,35,28,19,24,8,2,63,43,30,29.59,29.42,5,1,10,0.00
2013-5-14,41,31,21,17,14,11,77,50,31,29.61,29.55,5,1,9,0.00
2013-5-15,48,36,22,22,17,14,80,49,29,29.63,29.55,7,1,8,0.00
2013-5-16,52,41,27,29,23,19,78,52,27,29.59,29.33,7,1,10,0.00
2013-5-17,39,33,24,31,28,21,89,82,65,29.59,29.30,5,1,8,0.03
2013-5-18,32,26,19,21,10,4,88,53,31,30.13,29.59,9,1,12,0.00
2013-5-19,44,33,19,18,11,6,70,42,26,30.51,30.13,6,1,9,0.01
2013-5-20,54,40,26,21,17,12,72,41,20,30.57,30.34,7,1,10,0.00
2013-5-21,60,46,30,22,17,-100,67,35,14,30.37,30.05,5,1,9,0.00
2013-5-22,65,52,37,28,24,18,60,36,21,30.05,29.87,5,1,9,0.00
2013-5-23,62,52,40,40,34,27,66,51,37,30.02,29.91,8,1,8,0.00
2013-5-24,68,56,40,42,37,33,85,53,28,30.04,29.87,5,1,8,0.00
2013-5-25,74,62,47,34,30,25,54,32,17,29.88,29.71,5,1,8,0.00
2013-5-26,78,64,44,37,32,28,61,33,18,29.77,29.66,7,1,8,0.00
2013-5-27,81,67,51,42,38,34,58,37,22,29.76,29.64,5,1,7,0.00
2013-5-28,81,67,49,42,38,34,67,38,19,29.67,29.56,4,1,8,0.00
2013-5-29,81,69,55,40,33,24,50,29,13,29.59,29.53,8,1,8,0.00
2013-5-30,83,68,50,42,37,29,64,35,15,29.74,29.59,5,1,6,0.00
2013-5-31,81,68,56,49,38,22,67,38,12,29.85,29.74,5,1,9,0.00
2013-6-1,78,67,53,45,36,31,61,34,20,29.96,29.85,7,1,8,0.00
2013-6-2,78,65,48,46,41,37,74,46,25,29.95,29.75,6,1,11,0.00
2013-6-3,65,56,50,49,46,44,88,70,48,29.80,29.55,5,1,11,0.00
2013-6-4,61,52,46,49,46,41,97,80,49,29.55,29.45,5,0,7,0.23
2013-6-5,56,50,46,50,46,43,97,89,72,29.77,29.51,7,1,10,0.15
2013-6-6,63,53,44,51,45,41,97,77,46,29.80,29.69,4,0,6,0.02
2013-6-7,69,57,45,48,44,38,93,66,34,29.83,29.72,4,0,6,0.00
2013-6-8,72,61,49,50,44,38,87,57,31,30.01,29.83,3,0,9,0.00
2013-6-9,66,58,50,49,42,37,75,57,42,30.12,30.01,5,1,10,0.00
2013-6-10,59,52,47,46,43,40,92,71,52,30.17,30.12,7,1,8,0.00
2013-6-11,63,50,41,46,42,38,92,75,48,30.18,30.12,2,0,6,0.00
2013-6-12,70,70,68,36,32,31,30,24,24,29.96,29.95,3,1,5,0.00
2013-6-13,82,67,50,48,39,31,77,40,18,30.07,30.01,3,1,7,0.00
2013-6-14,67,66,61,40,37,36,44,34,32,30.06,30.04,1,1,2,0.00
2013-6-15,83,66,53,50,44,36,73,47,25,30.14,30.05,4,0,5,0.00
2013-6-16,87,74,62,58,52,47,73,49,30,30.13,30.02,5,0,6,0.00
2013-6-17,86,74,61,55,43,30,77,39,14,30.09,29.97,5,0,7,0.00
2013-6-18,86,73,59,47,42,39,58,36,20,29.99,29.75,6,1,11,0.00
2013-6-19,86,74,63,48,44,38,51,35,19,29.79,29.67,8,1,15,0.00
2013-6-20,85,72,58,51,46,39,73,42,21,29.80,29.66,4,1,6,0.00
2013-6-21,72,63,56,60,53,45,95,71,39,29.79,29.66,6,0,8,0.13
2013-6-22,75,62,49,50,46,40,90,59,31,29.78,29.60,5,1,11,0.00
2013-6-23,82,67,50,51,46,37,85,51,21,29.61,29.47,3,0,7,0.00
2013-6-24,86,72,59,54,49,42,76,47,23,29.54,29.47,3,0,8,0.00
2013-6-25,91,77,63,58,53,47,75,47,23,29.55,29.48,5,0,9,0.00
2013-6-26,90,77,63,60,54,50,74,48,26,29.58,29.52,2,0,5,0.00
2013-6-27,80,72,64,63,58,53,89,64,49,29.86,29.58,4,0,6,0.01
2013-6-28,79,70,63,59,55,51,82,60,39,29.92,29.86,4,0,9,0.00
2013-6-29,77,67,58,60,56,53,87,69,44,29.89,29.78,3,0,3,0.00
2013-6-30,83,70,56,59,54,46,89,59,39,29.79,29.50,4,0,7,0.00
2013-7-1,77,65,57,54,49,43,84,58,34,29.52,29.34,7,0,9,0.03
2013-7-2,70,60,50,48,44,39,87,58,35,29.62,29.41,8,1,9,0.00
2013-7-3,66,57,49,54,45,40,87,66,44,29.82,29.63,3,0,5,0.03
2013-7-4,68,56,46,47,43,38,90,64,33,29.92,29.78,9,1,12,0.01
2013-7-5,65,54,44,50,46,43,97,77,48,29.97,29.86,3,0,8,0.03
2013-7-6,74,58,44,52,45,43,95,67,35,29.87,29.64,6,0,6,0.00
2013-7-7,72,61,50,51,46,41,83,59,35,29.64,29.41,6,0,8,0.00
2013-7-8,62,56,50,55,50,45,94,81,63,29.62,29.44,6,0,6,0.03
2013-7-9,62,56,49,51,49,47,96,76,60,29.90,29.62,6,0,9,0.00
2013-7-10,57,55,51,50,49,48,95,81,74,29.96,29.90,4,0,6,0.16
2013-7-11,68,56,48,54,50,47,98,80,52,30.00,29.95,2,0,7,0.00
2013-7-12,78,62,49,50,46,39,90,59,26,29.97,29.86,3,0,8,0.00
2013-7-13,84,68,51,50,44,40,80,47,22,29.92,29.87,3,0,5,0.00
2013-7-14,87,71,54,56,49,44,81,50,24,30.00,29.90,4,0,6,0.00
2013-7-15,80,69,62,55,52,49,73,56,35,30.07,29.98,4,0,5,0.00
2013-7-16,66,62,59,55,53,49,82,72,62,30.06,30.00,3,0,7,0.00
2013-7-17,70,61,55,54,52,48,87,72,49,30.00,29.95,3,0,6,0.00
2013-7-18,72,61,54,58,52,48,97,73,44,30.04,29.94,6,0,8,0.54
2013-7-19,60,57,53,57,55,51,98,94,87,30.02,29.96,4,1,7,0.19
2013-7-20,62,55,51,55,51,50,96,88,70,30.02,29.99,9,1,9,0.17
2013-7-21,65,57,51,53,50,48,93,79,58,30.08,30.00,4,0,5,0.00
2013-7-22,72,59,45,56,50,45,98,76,46,30.12,30.01,3,0,5,0.00
2013-7-23,77,64,54,58,54,51,92,72,43,30.03,29.91,3,0,9,0.00
2013-7-24,73,64,58,61,57,55,91,76,57,29.93,29.85,5,0,8,0.00
2013-7-25,73,64,57,57,51,44,86,66,38,29.96,29.87,3,0,5,0.00
2013-7-26,73,62,50,56,51,42,93,69,38,30.09,29.96,5,0,9,0.00
2013-7-27,78,66,54,60,55,51,94,71,45,30.15,30.09,3,0,8,0.00
2013-7-28,85,71,54,61,55,51,92,60,31,30.11,29.94,5,0,6,0.00
2013-7-29,77,69,60,57,55,51,81,62,41,30.02,29.94,8,1,10,0.00
2013-7-30,74,64,53,56,52,50,91,68,44,30.09,30.00,6,0,9,0.00
2013-7-31,80,65,49,58,51,47,93,65,37,30.07,29.92,3,0,5,0.00
2013-8-1,84,68,53,56,52,48,88,59,29,29.93,29.71,3,0,4,0.00
2013-8-2,82,70,59,54,50,42,79,51,25,29.75,29.61,4,0,9,0.00
2013-8-3,81,66,56,53,48,43,75,53,27,29.62,29.53,7,0,17,0.00
2013-8-4,73,63,53,53,47,42,85,59,37,29.79,29.62,6,0,8,0.02
2013-8-5,75,61,48,54,49,44,98,69,35,29.84,29.76,3,0,5,0.01
2013-8-6,79,65,51,51,46,39,85,54,25,29.85,29.70,4,0,8,0.00
2013-8-7,84,68,51,52,47,42,82,51,24,29.72,29.50,6,0,8,0.00
2013-8-8,80,67,54,50,46,41,79,50,26,29.56,29.49,4,0,8,0.00
2013-8-9,70,61,53,53,48,43,83,63,44,29.59,29.53,3,0,3,0.00
2013-8-10,66,58,50,53,48,46,88,71,50,29.89,29.59,5,0,5,0.00
2013-8-11,75,58,44,57,43,-100,95,68,38,29.97,29.84,3,0,4,0.00
2013-8-12,76,63,54,59,55,51,91,75,53,29.95,29.86,4,0,7,0.00
2013-8-13,78,64,52,60,56,51,96,77,50,29.88,29.72,3,0,3,0.00
2013-8-14,66,60,54,56,54,51,94,79,64,29.80,29.71,5,0,9,0.00
2013-8-15,65,56,50,59,53,48,97,89,69,29.76,29.60,1,0,1,0.40
2013-8-16,66,57,49,60,54,49,99,91,71,29.61,29.53,3,0,3,0.00
2013-8-17,72,59,47,57,51,47,99,78,44,29.54,29.40,2,0,3,0.00
2013-8-18,70,60,50,56,51,48,95,74,49,29.45,29.39,2,0,3,0.00
2013-8-19,66,56,49,54,49,37,94,77,38,29.55,29.45,5,0,7,0.03
2013-8-20,55,50,44,52,49,44,98,95,87,29.69,29.54,3,0,5,0.73
2013-8-21,60,50,44,50,46,42,99,86,55,29.72,29.62,2,0,5,0.02
2013-8-22,64,52,40,54,46,39,97,81,56,29.63,29.48,2,0,3,0.01
2013-8-23,54,51,45,53,50,44,98,96,91,29.61,29.42,3,0,6,0.77
2013-8-24,58,47,40,45,42,37,98,83,49,29.85,29.61,2,0,4,0.01
2013-8-25,59,45,31,42,36,30,98,74,38,29.85,29.67,3,0,5,0.00
2013-8-26,63,49,36,44,37,32,90,66,36,29.75,29.68,3,0,5,0.00
2013-8-27,62,49,37,49,41,34,91,74,49,29.73,29.57,2,0,4,0.00
2013-8-28,56,51,46,48,45,42,96,82,60,29.63,29.57,3,0,5,0.03
2013-8-29,53,49,44,51,47,43,98,94,82,29.77,29.57,1,0,3,0.13
2013-8-30,54,49,43,49,44,38,99,85,56,29.89,29.77,3,0,5,0.02
2013-8-31,49,42,36,39,34,28,92,73,47,29.91,29.84,2,0,3,0.00
2013-9-1,48,41,32,45,37,30,96,87,63,29.84,29.60,1,0,2,0.06
2013-9-2,56,49,44,55,48,42,99,97,93,29.60,29.30,1,0,1,0.39
2013-9-3,63,53,47,56,51,46,99,92,69,29.34,29.10,3,0,5,0.17
2013-9-4,58,49,43,54,47,42,99,95,76,29.58,29.25,3,0,6,0.10
2013-9-5,57,48,38,52,45,38,99,90,69,29.89,29.58,2,0,3,0.00
2013-9-6,50,44,37,47,43,36,99,95,87,29.92,29.39,2,0,4,0.07
2013-9-7,54,47,43,52,46,42,99,97,89,29.59,29.39,1,0,1,0.01
2013-9-8,54,49,45,52,48,44,99,97,92,29.69,29.39,1,0,2,0.21
2013-9-9,59,50,43,52,47,43,100,89,63,29.73,29.59,2,0,4,0.01
2013-9-10,66,54,44,52,46,42,96,77,42,29.61,29.56,3,0,3,0.00
2013-9-11,52,47,44,49,46,43,98,95,86,29.72,29.48,4,0,7,0.81
2013-9-12,58,47,38,51,44,37,99,92,71,29.86,29.72,2,0,7,0.01
2013-9-13,49,45,40,48,44,40,99,96,90,29.86,29.76,0,0,0,0.04
2013-9-14,53,45,35,46,42,34,99,89,62,29.99,29.86,3,0,5,0.07
2013-9-15,53,39,28,39,34,28,99,84,52,30.05,29.90,2,0,3,0.00
2013-9-16,54,41,30,33,30,26,92,67,37,29.90,29.62,5,0,7,0.00
2013-9-17,42,36,31,29,25,22,82,65,55,29.62,29.55,3,0,6,0.00
2013-9-18,34,32,28,31,29,27,96,91,82,29.67,29.58,2,0,3,0.06
2013-9-19,37,31,27,30,28,25,97,88,67,29.66,29.53,2,0,3,0.02
2013-9-20,34,29,24,29,26,23,96,90,80,29.53,29.14,1,0,3,0.00
2013-9-21,41,31,22,27,23,20,95,74,48,29.17,29.06,2,0,3,0.00
2013-9-22,31,30,27,29,26,22,94,86,76,29.45,29.17,1,0,3,0.00
2013-9-23,36,29,22,28,24,20,96,84,55,29.81,29.45,3,0,4,0.01
2013-9-24,39,32,26,28,25,22,89,75,55,29.96,29.68,5,0,6,0.00
2013-9-25,52,42,34,40,34,26,89,73,54,29.68,29.32,1,0,4,0.01
2013-9-26,44,38,33,41,36,32,97,92,79,29.56,29.25,0,0,1,0.05
2013-9-27,54,43,36,39,36,33,97,78,50,29.25,29.08,2,0,5,0.00
2013-9-28,46,39,34,38,35,32,94,86,67,29.26,29.17,2,0,4,0.04
2013-9-29,43,38,36,39,36,31,98,91,73,29.55,29.26,2,0,4,0.01
2013-9-30,38,36,32,31,29,28,85,74,66,29.76,29.55,2,0,4,0.00
2013-10-1,36,33,30,33,30,28,97,91,85,29.86,29.76,1,0,2,0.00
2013-10-2,44,36,31,36,33,30,96,86,68,29.86,29.76,2,0,2,0.00
2013-10-3,48,39,32,37,33,30,95,80,57,29.77,29.53,2,0,4,0.00
2013-10-4,40,35,27,34,32,26,96,88,78,29.76,29.51,2,0,3,0.00
2013-10-5,42,33,26,34,31,25,97,91,74,29.77,29.60,2,0,5,0.00
2013-10-6,41,36,32,33,31,28,94,83,70,29.63,29.58,2,0,3,0.00
2013-10-7,34,32,30,32,31,29,97,96,94,29.78,29.63,2,0,2,0.02
2013-10-8,38,33,30,30,29,28,96,85,67,29.65,29.30,3,0,5,0.00
2013-10-9,39,35,32,36,33,31,95,94,82,29.60,28.90,8,1,14,0.31
2013-10-10,36,31,25,32,29,24,97,94,83,29.63,29.55,4,0,5,0.01
2013-10-11,44,33,29,36,30,28,97,91,68,29.76,29.61,2,0,3,0.01
2013-10-12,51,41,29,36,33,28,97,74,53,29.74,29.60,2,0,4,0.00
2013-10-13,46,43,37,37,32,30,94,66,56,29.60,29.31,5,0,6,0.08
2013-10-14,43,36,31,40,34,30,98,96,87,29.84,29.48,3,0,9,0.00
2013-10-15,46,40,33,40,35,32,98,84,63,29.85,29.74,3,0,3,0.03
2013-10-16,50,46,39,42,39,37,93,77,65,29.98,29.81,2,0,7,0.00
2013-10-17,51,46,42,46,40,36,93,78,67,29.88,29.60,2,0,2,0.03
2013-10-18,54,45,37,39,34,26,86,66,44,29.60,29.47,11,1,13,0.00
2013-10-19,53,43,34,37,32,28,91,67,44,29.48,29.21,5,1,9,0.00
2013-10-20,45,38,32,34,31,28,92,77,61,29.80,29.48,2,0,5,0.00
2013-10-21,36,31,25,30,27,23,93,85,71,30.02,29.80,2,0,3,0.00
2013-10-22,37,28,23,28,24,22,94,85,65,30.11,30.02,2,0,2,0.00
2013-10-23,31,26,22,27,24,21,96,92,82,30.08,29.80,2,0,2,0.00
2013-10-24,34,27,20,25,22,19,96,85,61,29.91,29.62,3,0,3,0.00
2013-10-25,40,31,24,28,24,21,90,76,58,30.08,29.63,3,0,3,0.00
2013-10-26,32,24,18,26,22,17,95,90,78,30.43,30.08,2,0,2,0.00
2013-10-27,42,37,32,36,27,21,95,69,53,30.28,29.56,2,0,4,0.08
2013-10-28,50,42,37,40,38,34,96,87,68,29.56,28.93,3,0,8,0.06
2013-10-29,39,33,26,37,32,26,97,95,89,29.43,29.16,5,1,11,0.22
2013-10-30,30,27,25,29,26,24,98,97,95,29.39,29.11,0,0,1,0.00
2013-10-31,26,24,21,25,23,19,97,96,95,29.61,29.18,0,0,0,0.00
2013-11-1,25,24,23,25,23,21,97,95,89,30.02,29.61,1,0,2,0.00
2013-11-2,25,22,18,23,20,17,96,95,93,30.02,29.73,1,0,2,0.00
2013-11-3,31,25,19,27,23,17,97,92,83,29.76,29.53,0,0,1,0.00
2013-11-4,26,23,20,24,20,18,95,90,83,29.53,29.36,0,0,1,0.00
2013-11-5,24,20,15,22,18,12,95,91,85,30.14,29.44,4,0,7,0.00
2013-11-6,14,11,6,12,9,3,93,90,87,30.26,30.05,1,0,2,0.00
2013-11-7,15,9,4,8,4,1,89,82,70,30.05,29.85,2,0,2,0.00
2013-11-8,15,5,-1,13,-12,-100,93,76,84,30.17,29.93,1,0,2,0.00
2013-11-9,23,19,15,19,16,13,93,87,77,30.08,29.67,3,0,6,0.00
2013-11-10,30,25,21,29,24,19,98,94,89,29.83,29.67,0,0,0,0.00
2013-11-11,21,13,3,20,11,1,95,92,87,30.25,29.83,0,0,0,0.00
2013-11-12,11,5,-2,9,3,-5,92,90,87,30.26,30.01,0,0,0,0.00
2013-11-13,40,18,11,37,16,8,99,91,82,30.01,29.53,9,0,14,0.69
2013-11-14,40,29,18,35,24,12,95,85,75,29.98,29.53,9,2,25,0.08
2013-11-15,18,10,3,12,7,0,92,88,76,30.06,29.98,2,0,5,0.00
2013-11-16,15,9,-3,13,6,-6,92,89,86,30.30,30.02,2,0,4,0.00
2013-11-17,1,-3,-10,-2,-6,-14,89,87,84,30.39,30.30,0,0,0,0.00
2013-11-18,0,-2,-3,-3,-4,-6,89,87,86,30.31,30.15,0,0,0,0.00
2013-11-19,1,-2,-13,-2,-35,-100,89,60,83,30.15,30.07,0,-305,0,0.00
2013-11-20,-15,-12,-23,-19,-58,-100,84,46,79,30.35,30.12,1,-436,1,0.00
2013-11-21,3,-12,-22,0,-16,-27,87,83,79,30.30,29.54,1,0,2,0.00
2013-11-22,15,10,3,13,7,0,93,89,84,29.53,29.19,3,0,3,0.00
2013-11-23,7,1,-2,6,-1,-5,93,88,85,29.89,29.37,1,0,2,0.00
2013-11-24,19,12,2,17,10,-1,94,91,89,29.99,29.89,1,0,1,0.00
2013-11-25,14,6,1,12,4,-2,92,90,88,30.02,29.89,0,0,0,0.00
2013-11-26,7,3,-3,5,0,-6,91,89,87,30.02,29.91,0,0,0,0.00
2013-11-27,2,1,-2,0,-2,-4,89,88,87,30.01,29.82,0,0,0,0.00
2013-11-28,2,-4,-7,-1,-7,-10,89,86,85,30.01,29.81,0,0,0,0.00
2013-11-29,-5,-9,-13,-8,-12,-17,87,85,83,30.32,30.01,0,0,0,0.00
2013-11-30,-11,-17,-19,-14,-20,-22,86,83,81,30.72,30.32,0,0,0,0.00
2013-12-1,-14,-17,-20,-17,-21,-24,85,83,80,30.76,30.72,0,0,0,0.00
2013-12-2,-1,-9,-16,-4,-12,-20,88,85,83,30.76,30.67,0,0,0,0.00
2013-12-3,8,4,-4,6,2,-6,91,89,86,30.70,30.52,0,0,0,0.00
2013-12-4,15,5,0,13,2,-3,94,90,87,30.53,30.40,0,0,0,0.00
2013-12-5,22,18,12,20,15,10,93,90,82,30.42,30.36,0,0,0,0.00
2013-12-6,25,22,18,23,21,15,96,93,89,30.41,30.33,0,0,0,0.00
2013-12-7,28,24,21,27,23,20,97,93,87,30.34,30.21,0,0,0,0.00
2013-12-8,30,28,25,29,27,24,98,97,95,30.30,30.14,0,0,0,0.00
2013-12-9,30,27,24,29,26,23,98,97,95,30.17,30.05,0,0,0,0.00
2013-12-10,24,13,6,23,9,0,96,85,75,30.30,30.06,0,0,0,0.00
2013-12-11,6,3,0,0,-5,-8,75,69,65,30.27,30.01,7,0,8,0.00
2013-12-12,2,0,-2,-7,-10,-12,77,65,59,30.01,29.80,7,2,12,0.00
2013-12-13,0,-4,-8,-7,-11,-14,76,71,64,29.80,29.26,3,0,7,0.00
2013-12-14,3,-1,-4,0,-4,-8,87,84,69,29.35,29.16,1,0,2,0.00
2013-12-15,-4,-9,-19,-7,-13,-23,86,83,81,30.17,29.34,1,0,1,0.00
2013-12-16,-19,-24,-27,-23,-29,-32,81,80,78,30.39,30.18,0,0,0,0.00
2013-12-17,-7,-16,-24,-10,-20,-29,86,82,79,30.41,30.36,1,0,1,0.00
2013-12-18,2,-5,-11,-1,-8,-15,88,85,82,30.37,29.81,2,0,2,0.00
2013-12-19,5,1,-7,2,-2,-10,90,88,85,29.81,29.73,0,0,0,0.00
2013-12-20,8,4,-1,4,1,-4,90,86,83,29.76,29.62,0,0,1,0.00
2013-12-21,14,9,3,11,7,0,92,90,85,29.67,29.56,0,0,0,0.00
2013-12-22,12,9,5,10,7,2,93,89,83,29.78,29.50,0,0,0,0.00
2013-12-23,6,2,-6,2,-2,-10,91,86,82,30.17,29.78,0,0,0,0.00
2013-12-24,-6,-11,-15,-9,-14,-19,88,85,82,30.20,30.01,0,0,0,0.00
2013-12-25,-15,-21,-26,-19,-25,-30,84,81,79,30.05,29.98,0,0,0,0.00
2013-12-26,-20,-25,-29,-23,-29,-34,84,80,78,30.14,30.04,0,0,0,0.00
2013-12-27,-17,-20,-23,-20,-24,-27,84,82,79,30.18,30.13,0,0,0,0.00
2013-12-28,5,-3,-17,3,-6,-21,90,87,82,30.16,30.03,0,0,0,0.00
2013-12-29,4,-2,-6,2,-5,-9,90,87,85,30.09,29.91,0,0,0,0.00
2013-12-30,1,-3,-6,-2,-6,-9,90,87,86,29.91,29.69,0,0,0,0.00
2013-12-31,16,1,-4,14,-1,-7,94,88,85,29.78,29.47,0,0,0,0.00
2014-1-1,21,16,9,18,13,7,93,90,87,29.47,29.23,0,0,0,0.00
2014-1-2,9,6,1,7,3,-2,92,89,87,30.05,29.45,0,0,0,0.00